Time,TemperatureF,DewpointF,PressureIn,WindDirection,WindDirectionDegrees,WindSpeedMPH,WindSpeedGustMPH,Humidity,HourlyPrecipIn,Conditions,Clouds,dailyrainin,SoftwareType,DateUTC
2013-01-18 00:04:00,43.9,29.2,30.09,ESE,112,4.0,4.9,56,0.00,,CLR,0.00,VWS V14.01,2013-01-18 06:04:00,
2013-01-18 00:10:00,43.9,29.2,30.09,ESE,112,3.8,4.3,56,0.00,,CLR,0.00,VWS V14.01,2013-01-18 06:10:00,
2013-01-18 00:16:00,43.7,29.0,30.09,East,90,3.8,3.8,56,0.00,,CLR,0.00,VWS V14.01,2013-01-18 06:16:00,
2013-01-18 00:21:00,43.7,29.0,30.09,East,90,4.3,4.3,56,0.00,,CLR,0.00,VWS V14.01,2013-01-18 06:21:00,
2013-01-18 00:27:00,43.5,29.3,30.09,ESE,112,3.4,3.4,57,0.00,,CLR,0.00,VWS V14.01,2013-01-18 06:27:00,
2013-01-18 00:32:00,43.5,28.9,30.09,ENE,68,1.6,2.5,56,0.00,,CLR,0.00,VWS V14.01,2013-01-18 06:32:00,
2013-01-18 00:38:00,43.3,28.7,30.09,ESE,112,2.0,2.7,56,0.00,,CLR,0.00,VWS V14.01,2013-01-18 06:38:00,
2013-01-18 00:43:00,43.0,28.8,30.12,ESE,112,1.3,2.9,57,0.00,,CLR,0.00,VWS V14.01,2013-01-18 06:43:00,
2013-01-18 00:49:00,42.8,28.2,30.12,East,90,2.0,2.0,56,0.00,,CLR,0.00,VWS V14.01,2013-01-18 06:49:00,
2013-01-18 00:55:00,42.6,28.5,30.12,East,90,1.6,1.6,57,0.00,,CLR,0.00,VWS V14.01,2013-01-18 06:55:00,
2013-01-18 01:00:00,42.4,28.3,30.12,ESE,112,3.1,3.4,57,0.00,,CLR,0.00,VWS V14.01,2013-01-18 07:00:00,
2013-01-18 01:05:00,42.6,28.9,30.12,ESE,112,3.1,3.6,58,0.00,,CLR,0.00,VWS V14.01,2013-01-18 07:05:00,
2013-01-18 01:11:00,42.8,29.1,30.12,SE,135,3.1,3.4,58,0.00,,CLR,0.00,VWS V14.01,2013-01-18 07:11:00,
2013-01-18 01:17:00,42.8,29.1,30.12,ESE,112,3.6,3.6,58,0.00,,CLR,0.00,VWS V14.01,2013-01-18 07:17:00,
2013-01-18 01:23:00,42.8,29.1,30.12,ESE,112,3.1,3.1,58,0.00,,CLR,0.00,VWS V14.01,2013-01-18 07:23:00,
2013-01-18 01:28:00,42.8,29.1,30.12,ESE,112,2.7,2.9,58,0.00,,CLR,0.00,VWS V14.01,2013-01-18 07:28:00,
2013-01-18 01:33:00,42.8,28.6,30.12,ESE,112,2.5,2.7,57,0.00,,CLR,0.00,VWS V14.01,2013-01-18 07:33:00,
2013-01-18 01:38:00,42.8,28.6,30.12,ESE,112,3.4,3.4,57,0.00,,CLR,0.00,VWS V14.01,2013-01-18 07:38:00,
2013-01-18 01:44:00,42.8,28.6,30.15,ESE,112,2.5,2.5,57,0.00,,CLR,0.00,VWS V14.01,2013-01-18 07:44:00,
2013-01-18 01:49:00,42.8,28.6,30.15,ESE,112,2.2,2.7,57,0.00,,CLR,0.00,VWS V14.01,2013-01-18 07:49:00,
2013-01-18 01:56:00,42.6,28.5,30.15,ESE,112,2.5,2.5,57,0.00,,CLR,0.00,VWS V14.01,2013-01-18 07:56:00,
2013-01-18 02:01:00,42.4,28.3,30.15,ESE,112,1.3,1.6,57,0.00,,CLR,0.00,VWS V14.01,2013-01-18 08:01:00,
2013-01-18 02:06:00,42.3,28.1,30.15,ESE,112,2.2,2.7,57,0.00,,CLR,0.00,VWS V14.01,2013-01-18 08:06:00,
2013-01-18 02:12:00,42.3,28.1,30.15,ESE,112,1.1,1.3,57,0.00,,CLR,0.00,VWS V14.01,2013-01-18 08:12:00,
2013-01-18 02:17:00,42.1,28.0,30.15,ESE,112,1.1,2.2,57,0.00,,CLR,0.00,VWS V14.01,2013-01-18 08:17:00,
2013-01-18 02:22:00,42.1,28.0,30.15,South,180,1.1,1.3,57,0.00,,CLR,0.00,VWS V14.01,2013-01-18 08:22:00,
2013-01-18 02:27:00,41.9,27.8,30.15,South,180,0.9,2.2,57,0.00,,CLR,0.00,VWS V14.01,2013-01-18 08:27:00,
2013-01-18 02:33:00,41.9,27.8,30.15,SSE,158,3.1,3.4,57,0.00,,CLR,0.00,VWS V14.01,2013-01-18 08:33:00,
2013-01-18 02:38:00,42.1,28.0,30.15,SE,135,3.4,3.4,57,0.00,,CLR,0.00,VWS V14.01,2013-01-18 08:38:00,
2013-01-18 02:43:00,42.3,28.1,30.12,SE,135,2.7,3.1,57,0.00,,CLR,0.00,VWS V14.01,2013-01-18 08:43:00,
2013-01-18 02:48:00,42.3,27.7,30.12,SSE,158,1.3,2.9,56,0.00,,CLR,0.00,VWS V14.01,2013-01-18 08:48:00,
2013-01-18 02:54:00,42.4,27.9,30.15,SE,135,2.0,2.5,56,0.00,,CLR,0.00,VWS V14.01,2013-01-18 08:54:00,
2013-01-18 03:00:00,42.4,27.9,30.15,SE,135,1.1,2.9,56,0.00,,CLR,0.00,VWS V14.01,2013-01-18 09:00:00,
2013-01-18 03:05:00,42.4,27.9,30.15,SE,135,1.6,2.0,56,0.00,,CLR,0.00,VWS V14.01,2013-01-18 09:05:00,
2013-01-18 03:11:00,42.3,27.7,30.15,SSW,202,1.1,1.1,56,0.00,,CLR,0.00,VWS V14.01,2013-01-18 09:11:00,
2013-01-18 03:16:00,41.7,27.2,30.15,SSE,158,0.0,0.0,56,0.00,,CLR,0.00,VWS V14.01,2013-01-18 09:16:00,
2013-01-18 03:22:00,41.4,27.3,30.15,SSE,158,0.0,0.0,57,0.00,,CLR,0.00,VWS V14.01,2013-01-18 09:22:00,
2013-01-18 03:28:00,41.4,27.3,30.12,SE,135,1.6,2.2,57,0.00,,CLR,0.00,VWS V14.01,2013-01-18 09:28:00,
2013-01-18 03:33:00,41.7,27.6,30.12,ESE,112,2.5,2.5,57,0.00,,CLR,0.00,VWS V14.01,2013-01-18 09:33:00,
2013-01-18 03:39:00,41.7,27.6,30.12,SSE,158,2.0,2.0,57,0.00,,CLR,0.00,VWS V14.01,2013-01-18 09:39:00,
2013-01-18 03:46:00,41.7,27.6,30.15,WNW,292,0.0,0.0,57,0.00,,CLR,0.00,VWS V14.01,2013-01-18 09:46:00,
2013-01-18 03:51:00,41.5,27.5,30.15,ESE,112,0.0,0.0,57,0.00,,CLR,0.00,VWS V14.01,2013-01-18 09:51:00,
2013-01-18 03:58:00,41.2,27.1,30.15,SSE,158,0.0,0.0,57,0.00,,CLR,0.00,VWS V14.01,2013-01-18 09:58:00,
2013-01-18 04:03:00,40.6,27.0,30.15,SSE,158,0.0,0.0,58,0.00,,CLR,0.00,VWS V14.01,2013-01-18 10:03:00,
2013-01-18 04:10:00,40.1,26.5,30.15,SSE,158,0.0,0.0,58,0.00,,CLR,0.00,VWS V14.01,2013-01-18 10:10:00,
2013-01-18 04:15:00,39.6,26.4,30.15,West,270,0.0,0.0,59,0.00,,CLR,0.00,VWS V14.01,2013-01-18 10:15:00,
2013-01-18 04:20:00,39.4,26.3,30.15,SSW,202,0.0,0.0,59,0.00,,CLR,0.00,VWS V14.01,2013-01-18 10:20:00,
2013-01-18 04:25:00,39.2,26.5,30.15,SSW,202,1.3,1.3,60,0.00,,CLR,0.00,VWS V14.01,2013-01-18 10:25:00,
2013-01-18 04:30:00,39.4,27.1,30.15,South,180,0.0,0.0,61,0.00,,CLR,0.00,VWS V14.01,2013-01-18 10:30:00,
2013-01-18 04:36:00,39.6,27.2,30.15,South,180,0.0,0.0,61,0.00,,CLR,0.00,VWS V14.01,2013-01-18 10:36:00,
2013-01-18 04:41:00,39.9,28.0,30.15,SSE,158,2.2,2.2,62,0.00,,CLR,0.00,VWS V14.01,2013-01-18 10:41:00,
2013-01-18 04:46:00,40.1,28.1,30.15,SSE,158,0.9,0.9,62,0.00,,CLR,0.00,VWS V14.01,2013-01-18 10:46:00,
2013-01-18 04:51:00,40.5,28.1,30.15,SSE,158,2.2,2.2,61,0.00,,CLR,0.00,VWS V14.01,2013-01-18 10:51:00,
2013-01-18 04:57:00,40.5,28.1,30.15,SE,135,0.0,0.0,61,0.00,,CLR,0.00,VWS V14.01,2013-01-18 10:57:00,
2013-01-18 05:02:00,40.3,27.9,30.15,SE,135,0.0,0.0,61,0.00,,CLR,0.00,VWS V14.01,2013-01-18 11:02:00,
2013-01-18 05:08:00,39.7,27.4,30.15,ESE,112,0.0,0.0,61,0.00,,CLR,0.00,VWS V14.01,2013-01-18 11:08:00,
2013-01-18 05:14:00,39.4,27.1,30.15,ESE,112,0.0,0.0,61,0.00,,CLR,0.00,VWS V14.01,2013-01-18 11:14:00,
2013-01-18 05:19:00,39.2,26.9,30.15,ESE,112,0.0,0.0,61,0.00,,CLR,0.00,VWS V14.01,2013-01-18 11:19:00,
2013-01-18 05:25:00,39.2,27.3,30.15,SSW,202,0.9,0.9,62,0.00,,CLR,0.00,VWS V14.01,2013-01-18 11:25:00,
2013-01-18 05:30:00,39.2,27.7,30.15,SSE,158,0.0,2.0,63,0.00,,CLR,0.00,VWS V14.01,2013-01-18 11:30:00,
2013-01-18 05:36:00,39.4,28.2,30.15,SE,135,0.0,1.6,64,0.00,,CLR,0.00,VWS V14.01,2013-01-18 11:36:00,
2013-01-18 05:42:00,39.2,27.7,30.15,SSE,158,0.0,0.0,63,0.00,,CLR,0.00,VWS V14.01,2013-01-18 11:42:00,
2013-01-18 05:47:00,38.8,27.7,30.15,SW,225,0.0,0.0,64,0.00,,CLR,0.00,VWS V14.01,2013-01-18 11:47:00,
2013-01-18 05:53:00,38.7,27.5,30.15,SE,135,0.0,0.0,64,0.00,,CLR,0.00,VWS V14.01,2013-01-18 11:53:00,
2013-01-18 05:58:00,38.5,27.8,30.15,SE,135,0.0,0.0,65,0.00,,CLR,0.00,VWS V14.01,2013-01-18 11:58:00,
2013-01-18 06:03:00,38.3,27.6,30.15,SE,135,0.0,0.0,65,0.00,,CLR,0.00,VWS V14.01,2013-01-18 12:03:00,
2013-01-18 06:08:00,37.9,26.9,30.15,SE,135,0.0,0.0,64,0.00,,CLR,0.00,VWS V14.01,2013-01-18 12:08:00,
2013-01-18 06:14:00,37.8,27.1,30.15,WNW,292,0.0,0.0,65,0.00,,CLR,0.00,VWS V14.01,2013-01-18 12:14:00,
2013-01-18 06:19:00,37.6,26.9,30.15,WNW,292,0.0,0.0,65,0.00,,CLR,0.00,VWS V14.01,2013-01-18 12:19:00,
2013-01-18 06:25:00,37.6,28.0,30.15,West,270,0.0,0.0,68,0.00,,CLR,0.00,VWS V14.01,2013-01-18 12:25:00,
2013-01-18 06:30:00,37.6,28.0,30.15,WNW,292,0.0,0.0,68,0.00,,CLR,0.00,VWS V14.01,2013-01-18 12:30:00,
2013-01-18 06:35:00,37.6,28.0,30.15,WNW,292,0.0,0.0,68,0.00,,CLR,0.00,VWS V14.01,2013-01-18 12:35:00,
2013-01-18 06:40:00,37.6,28.4,30.15,West,270,0.0,0.0,69,0.00,,CLR,0.00,VWS V14.01,2013-01-18 12:40:00,
2013-01-18 06:45:00,37.4,28.2,30.15,SW,225,0.0,0.0,69,0.00,,CLR,0.00,VWS V14.01,2013-01-18 12:45:00,
2013-01-18 06:52:00,37.4,27.8,30.15,SW,225,0.0,0.0,68,0.00,,CLR,0.00,VWS V14.01,2013-01-18 12:52:00,
2013-01-18 06:57:00,37.2,28.0,30.15,SW,225,0.0,0.0,69,0.00,,CLR,0.00,VWS V14.01,2013-01-18 12:57:00,
2013-01-18 07:03:00,37.0,27.8,30.15,WSW,248,0.0,0.0,69,0.00,,CLR,0.00,VWS V14.01,2013-01-18 13:03:00,
2013-01-18 07:09:00,37.0,27.8,30.15,WSW,248,0.0,0.0,69,0.00,,CLR,0.00,VWS V14.01,2013-01-18 13:09:00,
2013-01-18 07:16:00,37.0,28.2,30.15,WSW,248,0.0,0.9,70,0.00,,CLR,0.00,VWS V14.01,2013-01-18 13:16:00,
2013-01-18 07:21:00,36.9,28.4,30.15,WSW,248,0.0,0.0,71,0.00,,CLR,0.00,VWS V14.01,2013-01-18 13:21:00,
2013-01-18 07:27:00,36.9,28.4,30.15,SSW,202,0.0,0.0,71,0.00,,CLR,0.00,VWS V14.01,2013-01-18 13:27:00,
2013-01-18 07:32:00,36.9,28.0,30.15,WSW,248,0.0,0.0,70,0.00,,CLR,0.00,VWS V14.01,2013-01-18 13:32:00,
2013-01-18 07:38:00,36.9,28.7,30.15,WSW,248,0.0,0.0,72,0.00,,CLR,0.00,VWS V14.01,2013-01-18 13:38:00,
2013-01-18 07:44:00,36.9,28.7,30.15,WSW,248,0.0,0.0,72,0.00,,CLR,0.00,VWS V14.01,2013-01-18 13:44:00,
2013-01-18 07:50:00,37.0,29.2,30.15,WSW,248,0.0,0.0,73,0.00,,CLR,0.00,VWS V14.01,2013-01-18 13:50:00,
2013-01-18 07:55:00,37.0,29.2,30.18,SSW,202,0.0,1.1,73,0.00,,CLR,0.00,VWS V14.01,2013-01-18 13:55:00,
2013-01-18 08:00:00,37.2,29.4,30.18,SSW,202,0.9,0.9,73,0.00,,CLR,0.00,VWS V14.01,2013-01-18 14:00:00,
2013-01-18 08:06:00,37.6,29.7,30.18,SSW,202,0.0,1.3,73,0.00,,CLR,0.00,VWS V14.01,2013-01-18 14:06:00,
2013-01-18 08:11:00,38.1,30.2,30.18,SSW,202,1.3,1.3,73,0.00,,CLR,0.00,VWS V14.01,2013-01-18 14:11:00,
2013-01-18 08:17:00,38.5,30.6,30.18,SW,225,0.9,0.9,73,0.00,,CLR,0.00,VWS V14.01,2013-01-18 14:17:00,
2013-01-18 08:22:00,39.4,31.5,30.18,SW,225,0.0,0.0,73,0.00,,CLR,0.00,VWS V14.01,2013-01-18 14:22:00,
2013-01-18 08:28:00,39.7,31.8,30.18,SW,225,1.1,1.6,73,0.00,,CLR,0.00,VWS V14.01,2013-01-18 14:28:00,
2013-01-18 08:33:00,40.1,31.8,30.18,SSW,202,1.1,1.1,72,0.00,,CLR,0.00,VWS V14.01,2013-01-18 14:33:00,
2013-01-18 08:38:00,40.6,32.3,30.18,WSW,248,2.0,2.0,72,0.00,,CLR,0.00,VWS V14.01,2013-01-18 14:38:00,
2013-01-18 08:43:00,40.8,32.2,30.18,WSW,248,2.0,2.0,71,0.00,,CLR,0.00,VWS V14.01,2013-01-18 14:43:00,
2013-01-18 08:48:00,41.0,32.0,30.18,SSW,202,1.1,1.3,70,0.00,,CLR,0.00,VWS V14.01,2013-01-18 14:48:00,
2013-01-18 08:53:00,41.4,32.3,30.18,WSW,248,1.3,3.4,70,0.00,,CLR,0.00,VWS V14.01,2013-01-18 14:53:00,
2013-01-18 08:59:00,41.5,32.1,30.18,SSW,202,2.7,2.7,69,0.00,,CLR,0.00,VWS V14.01,2013-01-18 14:59:00,
2013-01-18 09:05:00,41.9,32.5,30.18,SW,225,2.7,2.7,69,0.00,,CLR,0.00,VWS V14.01,2013-01-18 15:05:00,
2013-01-18 09:10:00,42.3,32.8,30.18,West,270,2.5,3.6,69,0.00,,CLR,0.00,VWS V14.01,2013-01-18 15:10:00,
2013-01-18 09:16:00,42.8,33.0,30.18,South,180,3.4,3.4,68,0.00,,CLR,0.00,VWS V14.01,2013-01-18 15:16:00,
2013-01-18 09:21:00,43.2,33.0,30.18,SSW,202,2.0,3.1,67,0.00,,CLR,0.00,VWS V14.01,2013-01-18 15:21:00,
2013-01-18 09:27:00,44.2,34.0,30.18,WSW,248,3.4,4.9,67,0.00,,CLR,0.00,VWS V14.01,2013-01-18 15:27:00,
2013-01-18 09:33:00,45.5,34.8,30.18,SSW,202,4.7,4.7,66,0.00,,CLR,0.00,VWS V14.01,2013-01-18 15:33:00,
2013-01-18 09:38:00,46.9,34.6,30.18,South,180,1.1,1.1,62,0.00,,CLR,0.00,VWS V14.01,2013-01-18 15:38:00,
2013-01-18 09:44:00,48.7,35.5,30.18,WSW,248,0.9,2.0,60,0.00,,CLR,0.00,VWS V14.01,2013-01-18 15:44:00,
2013-01-18 09:49:00,50.2,36.0,30.18,South,180,2.7,2.7,58,0.00,,CLR,0.00,VWS V14.01,2013-01-18 15:49:00,
2013-01-18 09:55:00,52.2,34.6,30.18,WSW,248,3.4,5.8,51,0.00,,CLR,0.00,VWS V14.01,2013-01-18 15:55:00,
2013-01-18 10:00:00,52.3,34.8,30.18,SW,225,1.6,2.9,51,0.00,,CLR,0.00,VWS V14.01,2013-01-18 16:00:00,
2013-01-18 10:06:00,53.8,35.6,30.18,WSW,248,4.3,4.3,50,0.00,,CLR,0.00,VWS V14.01,2013-01-18 16:06:00,
2013-01-18 10:11:00,54.5,36.3,30.15,SSW,202,1.6,2.7,50,0.00,,CLR,0.00,VWS V14.01,2013-01-18 16:11:00,
2013-01-18 10:17:00,56.3,37.4,30.15,WSW,248,4.3,4.3,49,0.00,,CLR,0.00,VWS V14.01,2013-01-18 16:17:00,
2013-01-18 10:23:00,57.0,37.5,30.15,WSW,248,2.5,3.4,48,0.00,,CLR,0.00,VWS V14.01,2013-01-18 16:23:00,
2013-01-18 10:28:00,57.7,37.1,30.15,SSW,202,3.4,3.4,46,0.00,,CLR,0.00,VWS V14.01,2013-01-18 16:28:00,
2013-01-18 10:33:00,58.1,36.9,30.15,WSW,248,4.3,5.6,45,0.00,,CLR,0.00,VWS V14.01,2013-01-18 16:33:00,
2013-01-18 10:38:00,58.5,37.2,30.15,WSW,248,3.4,3.4,45,0.00,,CLR,0.00,VWS V14.01,2013-01-18 16:38:00,
2013-01-18 10:44:00,59.0,37.1,30.15,WSW,248,2.7,3.1,44,0.00,,CLR,0.00,VWS V14.01,2013-01-18 16:44:00,
2013-01-18 10:50:00,60.3,38.3,30.15,WSW,248,4.3,4.3,44,0.00,,CLR,0.00,VWS V14.01,2013-01-18 16:50:00,
2013-01-18 10:55:00,60.8,37.6,30.12,WNW,292,2.5,2.5,42,0.00,,CLR,0.00,VWS V14.01,2013-01-18 16:55:00,
2013-01-18 11:00:00,60.6,36.8,30.12,SSW,202,2.2,5.6,41,0.00,,CLR,0.00,VWS V14.01,2013-01-18 17:00:00,
2013-01-18 11:06:00,61.7,37.8,30.12,SSE,158,0.9,2.7,41,0.00,,CLR,0.00,VWS V14.01,2013-01-18 17:06:00,
2013-01-18 11:11:00,62.4,37.2,30.09,SW,225,3.8,4.0,39,0.00,,CLR,0.00,VWS V14.01,2013-01-18 17:11:00,
2013-01-18 11:16:00,62.4,37.8,30.09,WSW,248,2.7,4.0,40,0.00,,CLR,0.00,VWS V14.01,2013-01-18 17:16:00,
2013-01-18 11:21:00,62.6,37.3,30.09,SW,225,2.5,2.9,39,0.00,,CLR,0.00,VWS V14.01,2013-01-18 17:21:00,
2013-01-18 11:27:00,63.0,37.6,30.06,WSW,248,2.9,2.9,39,0.00,,CLR,0.00,VWS V14.01,2013-01-18 17:27:00,
2013-01-18 11:32:00,64.0,37.9,30.06,SW,225,3.8,4.0,38,0.00,,CLR,0.00,VWS V14.01,2013-01-18 17:32:00,
2013-01-18 11:37:00,64.0,37.9,30.06,SSE,158,1.3,2.9,38,0.00,,CLR,0.00,VWS V14.01,2013-01-18 17:37:00,
2013-01-18 11:42:00,65.1,38.2,30.09,WNW,292,5.8,5.8,37,0.00,,CLR,0.00,VWS V14.01,2013-01-18 17:42:00,
2013-01-18 11:48:00,64.4,37.6,30.09,WSW,248,5.4,6.3,37,0.00,,CLR,0.00,VWS V14.01,2013-01-18 17:48:00,
2013-01-18 11:54:00,64.2,37.4,30.06,South,180,3.1,3.1,37,0.00,,CLR,0.00,VWS V14.01,2013-01-18 17:54:00,
2013-01-18 11:59:00,65.5,37.8,30.06,SSW,202,4.7,4.9,36,0.00,,CLR,0.00,VWS V14.01,2013-01-18 17:59:00,
2013-01-18 12:04:00,65.5,37.8,30.06,East,90,2.0,3.1,36,0.00,,CLR,0.00,VWS V14.01,2013-01-18 18:04:00,
2013-01-18 12:09:00,66.4,37.9,30.03,WSW,248,4.9,4.9,35,0.00,,CLR,0.00,VWS V14.01,2013-01-18 18:09:00,
2013-01-18 12:15:00,65.8,37.5,30.03,NW,315,2.5,2.5,35,0.00,,CLR,0.00,VWS V14.01,2013-01-18 18:15:00,
2013-01-18 12:20:00,66.9,38.4,30.03,WSW,248,2.7,2.7,35,0.00,,CLR,0.00,VWS V14.01,2013-01-18 18:20:00,
2013-01-18 12:25:00,67.1,38.6,30.03,South,180,2.7,3.8,35,0.00,,CLR,0.00,VWS V14.01,2013-01-18 18:25:00,
2013-01-18 12:30:00,66.7,37.5,30.03,NNE,22,2.2,4.3,34,0.00,,CLR,0.00,VWS V14.01,2013-01-18 18:30:00,
2013-01-18 12:35:00,68.2,38.8,30.03,WNW,292,1.6,1.6,34,0.00,,CLR,0.00,VWS V14.01,2013-01-18 18:35:00,
2013-01-18 12:42:00,68.0,38.6,30.03,SSW,202,1.1,1.1,34,0.00,,CLR,0.00,VWS V14.01,2013-01-18 18:42:00,
2013-01-18 12:47:00,67.6,37.5,30.00,SW,225,3.6,5.4,33,0.00,,CLR,0.00,VWS V14.01,2013-01-18 18:47:00,
2013-01-18 12:52:00,67.1,37.1,30.00,SW,225,1.6,4.0,33,0.00,,CLR,0.00,VWS V14.01,2013-01-18 18:52:00,
2013-01-18 12:57:00,67.5,37.4,29.97,East,90,2.0,2.5,33,0.00,,CLR,0.00,VWS V14.01,2013-01-18 18:57:00,
2013-01-18 13:02:00,68.0,37.8,29.97,WSW,248,2.7,3.8,33,0.00,,CLR,0.00,VWS V14.01,2013-01-18 19:02:00,
2013-01-18 13:08:00,68.2,38.0,29.97,South,180,3.1,4.0,33,0.00,,CLR,0.00,VWS V14.01,2013-01-18 19:08:00,
2013-01-18 13:13:00,68.0,37.1,30.00,WSW,248,4.0,7.2,32,0.00,,CLR,0.00,VWS V14.01,2013-01-18 19:13:00,
2013-01-18 13:18:00,67.8,37.7,30.00,West,270,3.1,5.6,33,0.00,,CLR,0.00,VWS V14.01,2013-01-18 19:18:00,
2013-01-18 13:23:00,68.2,37.2,30.00,WNW,292,1.1,2.5,32,0.00,,CLR,0.00,VWS V14.01,2013-01-18 19:23:00,
2013-01-18 13:28:00,69.4,38.3,29.94,SE,135,1.6,4.0,32,0.00,,CLR,0.00,VWS V14.01,2013-01-18 19:28:00,
2013-01-18 13:34:00,69.1,38.0,29.94,WSW,248,1.1,2.9,32,0.00,,CLR,0.00,VWS V14.01,2013-01-18 19:34:00,
2013-01-18 13:41:00,68.2,35.6,29.94,WSW,248,4.0,6.0,30,0.00,,CLR,0.00,VWS V14.01,2013-01-18 19:41:00,
2013-01-18 13:47:00,67.8,35.3,29.94,West,270,3.8,4.3,30,0.00,,CLR,0.00,VWS V14.01,2013-01-18 19:47:00,
2013-01-18 13:52:00,67.5,35.8,29.94,ENE,68,3.1,3.1,31,0.00,,CLR,0.00,VWS V14.01,2013-01-18 19:52:00,
2013-01-18 13:57:00,68.4,35.8,29.91,NNE,22,0.0,3.4,30,0.00,,CLR,0.00,VWS V14.01,2013-01-18 19:57:00,
2013-01-18 14:02:00,68.0,35.4,29.91,WSW,248,2.9,2.9,30,0.00,,CLR,0.00,VWS V14.01,2013-01-18 20:02:00,
2013-01-18 14:08:00,67.3,33.1,29.91,WSW,248,4.7,4.7,28,0.00,,CLR,0.00,VWS V14.01,2013-01-18 20:08:00,
2013-01-18 14:14:00,68.2,34.7,29.91,WSW,248,3.8,3.8,29,0.00,,CLR,0.00,VWS V14.01,2013-01-18 20:14:00,
2013-01-18 14:19:00,67.1,33.8,29.91,NW,315,2.5,4.3,29,0.00,,CLR,0.00,VWS V14.01,2013-01-18 20:19:00,
2013-01-18 14:24:00,67.5,35.0,29.91,NNW,338,3.1,4.3,30,0.00,,CLR,0.00,VWS V14.01,2013-01-18 20:24:00,
2013-01-18 14:29:00,68.7,35.2,29.91,NE,45,1.6,2.2,29,0.00,,CLR,0.00,VWS V14.01,2013-01-18 20:29:00,
2013-01-18 14:34:00,68.7,34.3,29.91,WNW,292,4.3,4.3,28,0.00,,CLR,0.00,VWS V14.01,2013-01-18 20:34:00,
2013-01-18 14:39:00,68.2,33.0,29.91,WSW,248,2.9,2.9,27,0.00,,CLR,0.00,VWS V14.01,2013-01-18 20:39:00,
2013-01-18 14:44:00,68.2,33.9,29.91,WSW,248,2.9,2.9,28,0.00,,CLR,0.00,VWS V14.01,2013-01-18 20:44:00,
2013-01-18 14:49:00,67.6,33.4,29.91,WSW,248,3.6,5.4,28,0.00,,CLR,0.00,VWS V14.01,2013-01-18 20:49:00,
2013-01-18 14:54:00,67.6,34.3,29.91,SSW,202,2.5,2.5,29,0.00,,CLR,0.00,VWS V14.01,2013-01-18 20:54:00,
2013-01-18 14:59:00,67.3,33.1,29.91,WNW,292,0.0,4.0,28,0.00,,CLR,0.00,VWS V14.01,2013-01-18 20:59:00,
2013-01-18 15:04:00,66.7,33.5,29.91,SW,225,1.6,3.4,29,0.00,,CLR,0.00,VWS V14.01,2013-01-18 21:04:00,
2013-01-18 15:10:00,66.6,33.3,29.91,West,270,4.0,4.0,29,0.00,,CLR,0.00,VWS V14.01,2013-01-18 21:10:00,
2013-01-18 15:15:00,66.2,33.9,29.91,WSW,248,6.3,6.3,30,0.00,,CLR,0.00,VWS V14.01,2013-01-18 21:15:00,
2013-01-18 15:20:00,65.7,32.6,29.91,SSE,158,2.2,5.4,29,0.00,,CLR,0.00,VWS V14.01,2013-01-18 21:20:00,
2013-01-18 15:26:00,65.5,33.3,29.91,SW,225,1.3,2.2,30,0.00,,CLR,0.00,VWS V14.01,2013-01-18 21:26:00,
2013-01-18 15:32:00,64.4,32.3,29.91,WSW,248,0.9,1.6,30,0.00,,CLR,0.00,VWS V14.01,2013-01-18 21:32:00,
2013-01-18 15:37:00,63.5,31.5,29.91,West,270,2.9,3.4,30,0.00,,CLR,0.00,VWS V14.01,2013-01-18 21:37:00,
2013-01-18 15:42:00,62.6,31.6,29.91,WSW,248,3.1,4.5,31,0.00,,CLR,0.00,VWS V14.01,2013-01-18 21:42:00,
2013-01-18 15:47:00,61.9,31.7,29.91,NNW,338,3.4,3.4,32,0.00,,CLR,0.00,VWS V14.01,2013-01-18 21:47:00,
2013-01-18 15:52:00,61.7,32.3,29.91,NNW,338,0.0,0.0,33,0.00,,CLR,0.00,VWS V14.01,2013-01-18 21:52:00,
2013-01-18 15:57:00,61.5,32.9,29.91,West,270,1.1,3.4,34,0.00,,CLR,0.00,VWS V14.01,2013-01-18 21:57:00,
2013-01-18 16:02:00,61.9,33.2,29.91,NNW,338,0.9,1.6,34,0.00,,CLR,0.00,VWS V14.01,2013-01-18 22:02:00,
2013-01-18 16:07:00,62.1,33.4,29.91,SSW,202,1.6,3.1,34,0.00,,CLR,0.00,VWS V14.01,2013-01-18 22:07:00,
2013-01-18 16:12:00,61.5,32.9,29.91,WNW,292,2.2,3.4,34,0.00,,CLR,0.00,VWS V14.01,2013-01-18 22:12:00,
2013-01-18 16:17:00,61.0,32.4,29.91,WNW,292,3.8,3.8,34,0.00,,CLR,0.00,VWS V14.01,2013-01-18 22:17:00,
2013-01-18 16:22:00,60.6,32.1,29.91,WSW,248,0.0,1.6,34,0.00,,CLR,0.00,VWS V14.01,2013-01-18 22:22:00,
2013-01-18 16:27:00,60.3,31.8,29.91,WNW,292,2.7,2.9,34,0.00,,CLR,0.00,VWS V14.01,2013-01-18 22:27:00,
2013-01-18 16:32:00,59.9,31.5,29.91,WSW,248,2.0,2.9,34,0.00,,CLR,0.00,VWS V14.01,2013-01-18 22:32:00,
2013-01-18 16:37:00,59.7,32.0,29.91,WSW,248,2.7,3.1,35,0.00,,CLR,0.00,VWS V14.01,2013-01-18 22:37:00,
2013-01-18 16:43:00,59.5,31.9,29.91,WNW,292,1.1,2.0,35,0.00,,CLR,0.00,VWS V14.01,2013-01-18 22:43:00,
2013-01-18 16:48:00,59.4,31.7,29.91,WSW,248,0.0,1.3,35,0.00,,CLR,0.00,VWS V14.01,2013-01-18 22:48:00,
2013-01-18 16:53:00,58.8,32.0,29.91,East,90,0.0,0.0,36,0.00,,CLR,0.00,VWS V14.01,2013-01-18 22:53:00,
2013-01-18 16:59:00,58.3,31.5,29.91,WNW,292,0.0,1.1,36,0.00,,CLR,0.00,VWS V14.01,2013-01-18 22:59:00,
2013-01-18 17:05:00,57.7,31.7,29.91,WSW,248,1.3,1.3,37,0.00,,CLR,0.00,VWS V14.01,2013-01-18 23:05:00,
2013-01-18 17:10:00,57.0,31.7,29.91,WSW,248,1.6,2.5,38,0.00,,CLR,0.00,VWS V14.01,2013-01-18 23:10:00,
2013-01-18 17:16:00,56.5,31.2,29.91,WSW,248,1.1,1.3,38,0.00,,CLR,0.00,VWS V14.01,2013-01-18 23:16:00,
2013-01-18 17:21:00,55.9,31.4,29.91,WSW,248,1.3,1.3,39,0.00,,CLR,0.00,VWS V14.01,2013-01-18 23:21:00,
2013-01-18 17:26:00,55.4,30.9,29.88,WSW,248,0.0,0.0,39,0.00,,CLR,0.00,VWS V14.01,2013-01-18 23:26:00,
2013-01-18 17:31:00,54.9,31.0,29.88,WSW,248,0.0,0.0,40,0.00,,CLR,0.00,VWS V14.01,2013-01-18 23:31:00,
2013-01-18 17:36:00,54.3,30.5,29.88,WSW,248,0.0,0.0,40,0.00,,CLR,0.00,VWS V14.01,2013-01-18 23:36:00,
2013-01-18 17:41:00,53.8,30.0,29.91,WSW,248,0.0,0.0,40,0.00,,CLR,0.00,VWS V14.01,2013-01-18 23:41:00,
2013-01-18 17:46:00,53.2,30.2,29.91,WSW,248,0.0,0.0,41,0.00,,CLR,0.00,VWS V14.01,2013-01-18 23:46:00,
2013-01-18 17:51:00,52.9,29.8,29.91,WSW,248,0.0,0.0,41,0.00,,CLR,0.00,VWS V14.01,2013-01-18 23:51:00,
2013-01-18 17:56:00,52.5,30.1,29.91,WSW,248,0.0,0.0,42,0.00,,CLR,0.00,VWS V14.01,2013-01-18 23:56:00,
2013-01-18 18:01:00,52.0,29.6,29.91,WSW,248,0.0,0.0,42,0.00,,CLR,0.00,VWS V14.01,2013-01-19 00:01:00,
2013-01-18 18:06:00,51.6,29.9,29.91,WSW,248,0.0,0.0,43,0.00,,CLR,0.00,VWS V14.01,2013-01-19 00:06:00,
2013-01-18 18:11:00,51.3,29.5,29.94,WSW,248,0.0,0.0,43,0.00,,CLR,0.00,VWS V14.01,2013-01-19 00:11:00,
2013-01-18 18:16:00,50.9,29.8,29.94,WSW,248,0.0,0.0,44,0.00,,CLR,0.00,VWS V14.01,2013-01-19 00:16:00,
2013-01-18 18:22:00,50.5,29.5,29.94,WSW,248,0.0,0.0,44,0.00,,CLR,0.00,VWS V14.01,2013-01-19 00:22:00,
2013-01-18 18:27:00,50.2,29.1,29.94,WSW,248,0.0,0.0,44,0.00,,CLR,0.00,VWS V14.01,2013-01-19 00:27:00,
2013-01-18 18:32:00,50.0,29.5,29.94,WSW,248,0.0,0.0,45,0.00,,CLR,0.00,VWS V14.01,2013-01-19 00:32:00,
2013-01-18 18:37:00,49.8,29.9,29.94,WSW,248,0.0,0.0,46,0.00,,CLR,0.00,VWS V14.01,2013-01-19 00:37:00,
2013-01-18 18:42:00,49.6,29.7,29.94,WSW,248,0.0,0.0,46,0.00,,CLR,0.00,VWS V14.01,2013-01-19 00:42:00,
2013-01-18 18:47:00,49.5,29.6,29.94,WSW,248,0.0,0.0,46,0.00,,CLR,0.00,VWS V14.01,2013-01-19 00:47:00,
2013-01-18 18:52:00,49.3,29.9,29.94,WSW,248,0.0,0.0,47,0.00,,CLR,0.00,VWS V14.01,2013-01-19 00:52:00,
2013-01-18 18:57:00,49.1,29.8,29.94,WSW,248,0.0,0.0,47,0.00,,CLR,0.00,VWS V14.01,2013-01-19 00:57:00,
2013-01-18 19:02:00,48.9,29.6,29.94,WSW,248,0.0,0.0,47,0.00,,CLR,0.00,VWS V14.01,2013-01-19 01:02:00,
2013-01-18 19:07:00,48.9,29.6,29.94,WSW,248,0.9,1.1,47,0.00,,CLR,0.00,VWS V14.01,2013-01-19 01:07:00,
2013-01-18 19:13:00,48.7,29.4,29.94,WSW,248,0.0,1.1,47,0.00,,CLR,0.00,VWS V14.01,2013-01-19 01:13:00,
2013-01-18 19:18:00,48.6,29.3,29.94,WSW,248,0.0,0.0,47,0.00,,CLR,0.00,VWS V14.01,2013-01-19 01:18:00,
2013-01-18 19:23:00,48.2,29.5,29.94,WSW,248,1.1,1.1,48,0.00,,CLR,0.00,VWS V14.01,2013-01-19 01:23:00,
2013-01-18 19:28:00,48.2,29.5,29.97,WSW,248,0.0,0.0,48,0.00,,CLR,0.00,VWS V14.01,2013-01-19 01:28:00,
2013-01-18 19:34:00,48.0,29.8,29.97,WSW,248,0.0,0.0,49,0.00,,CLR,0.00,VWS V14.01,2013-01-19 01:34:00,
2013-01-18 19:39:00,47.7,29.5,29.97,WSW,248,0.0,0.0,49,0.00,,CLR,0.00,VWS V14.01,2013-01-19 01:39:00,
2013-01-18 19:44:00,47.5,29.3,29.97,West,270,2.7,2.7,49,0.00,,CLR,0.00,VWS V14.01,2013-01-19 01:44:00,
2013-01-18 19:49:00,47.7,29.5,29.97,WSW,248,2.5,2.5,49,0.00,,CLR,0.00,VWS V14.01,2013-01-19 01:49:00,
2013-01-18 19:56:00,47.8,30.1,30.00,WSW,248,2.2,2.2,50,0.00,,CLR,0.00,VWS V14.01,2013-01-19 01:56:00,
2013-01-18 20:01:00,47.8,30.1,30.00,WSW,248,1.3,2.2,50,0.00,,CLR,0.00,VWS V14.01,2013-01-19 02:01:00,
2013-01-18 20:07:00,47.7,30.0,30.00,WSW,248,2.7,3.1,50,0.00,,CLR,0.00,VWS V14.01,2013-01-19 02:07:00,
2013-01-18 20:12:00,47.8,30.1,29.97,WSW,248,3.1,3.1,50,0.00,,CLR,0.00,VWS V14.01,2013-01-19 02:12:00,
2013-01-18 20:17:00,48.2,30.0,29.97,WSW,248,2.2,2.2,49,0.00,,CLR,0.00,VWS V14.01,2013-01-19 02:17:00,
2013-01-18 20:23:00,48.0,30.3,29.97,WSW,248,0.0,0.0,50,0.00,,CLR,0.00,VWS V14.01,2013-01-19 02:23:00,
2013-01-18 20:29:00,47.3,29.6,30.00,WSW,248,0.0,0.0,50,0.00,,CLR,0.00,VWS V14.01,2013-01-19 02:29:00,
2013-01-18 20:34:00,47.1,29.0,30.00,WSW,248,1.1,1.1,49,0.00,,CLR,0.00,VWS V14.01,2013-01-19 02:34:00,
2013-01-18 20:39:00,46.8,29.1,29.97,WSW,248,1.1,1.1,50,0.00,,CLR,0.00,VWS V14.01,2013-01-19 02:39:00,
2013-01-18 20:44:00,46.6,29.0,29.97,SSE,158,2.2,2.5,50,0.00,,CLR,0.00,VWS V14.01,2013-01-19 02:44:00,
2013-01-18 20:49:00,45.9,28.8,29.97,SSE,158,0.0,1.1,51,0.00,,CLR,0.00,VWS V14.01,2013-01-19 02:49:00,
2013-01-18 20:54:00,45.3,28.3,29.97,WSW,248,0.9,2.2,51,0.00,,CLR,0.00,VWS V14.01,2013-01-19 02:54:00,
2013-01-18 20:59:00,44.8,28.2,29.97,WSW,248,0.0,0.0,52,0.00,,CLR,0.00,VWS V14.01,2013-01-19 02:59:00,
2013-01-18 21:04:00,44.6,28.1,29.97,WSW,248,0.0,0.0,52,0.00,,CLR,0.00,VWS V14.01,2013-01-19 03:04:00,
2013-01-18 21:09:00,44.6,28.1,29.97,WSW,248,0.0,0.0,52,0.00,,CLR,0.00,VWS V14.01,2013-01-19 03:09:00,
2013-01-18 21:14:00,44.8,28.7,29.97,SW,225,2.0,2.5,53,0.00,,CLR,0.00,VWS V14.01,2013-01-19 03:14:00,
2013-01-18 21:19:00,45.1,29.0,29.97,WSW,248,1.3,1.3,53,0.00,,CLR,0.00,VWS V14.01,2013-01-19 03:19:00,
2013-01-18 21:24:00,45.1,29.5,29.97,WSW,248,1.3,1.3,54,0.00,,CLR,0.00,VWS V14.01,2013-01-19 03:24:00,
2013-01-18 21:30:00,45.1,29.5,29.97,WSW,248,0.0,1.1,54,0.00,,CLR,0.00,VWS V14.01,2013-01-19 03:30:00,
2013-01-18 21:35:00,45.0,29.3,29.97,WSW,248,0.0,0.0,54,0.00,,CLR,0.00,VWS V14.01,2013-01-19 03:35:00,
2013-01-18 21:40:00,44.8,29.2,29.94,WSW,248,0.0,0.0,54,0.00,,CLR,0.00,VWS V14.01,2013-01-19 03:40:00,
2013-01-18 21:45:00,44.4,28.8,29.94,WSW,248,0.0,0.0,54,0.00,,CLR,0.00,VWS V14.01,2013-01-19 03:45:00,
2013-01-18 21:51:00,44.2,29.1,29.94,WSW,248,0.0,0.0,55,0.00,,CLR,0.00,VWS V14.01,2013-01-19 03:51:00,
2013-01-18 21:56:00,44.1,28.5,29.97,WSW,248,0.0,0.0,54,0.00,,CLR,0.00,VWS V14.01,2013-01-19 03:56:00,
2013-01-18 22:01:00,43.7,28.6,29.97,WSW,248,0.0,0.0,55,0.00,,CLR,0.00,VWS V14.01,2013-01-19 04:01:00,
2013-01-18 22:06:00,43.3,28.3,29.97,WSW,248,1.3,1.6,55,0.00,,CLR,0.00,VWS V14.01,2013-01-19 04:06:00,
2013-01-18 22:12:00,43.3,28.3,29.97,NNW,338,0.0,0.9,55,0.00,,CLR,0.00,VWS V14.01,2013-01-19 04:12:00,
2013-01-18 22:17:00,43.3,28.7,29.97,NNW,338,0.0,0.0,56,0.00,,CLR,0.00,VWS V14.01,2013-01-19 04:17:00,
2013-01-18 22:22:00,43.3,28.3,29.97,WSW,248,1.3,2.2,55,0.00,,CLR,0.00,VWS V14.01,2013-01-19 04:22:00,
2013-01-18 22:27:00,44.1,29.8,29.97,WSW,248,2.5,2.9,57,0.00,,CLR,0.00,VWS V14.01,2013-01-19 04:27:00,
2013-01-18 22:33:00,44.2,30.0,29.97,WSW,248,2.2,2.2,57,0.00,,CLR,0.00,VWS V14.01,2013-01-19 04:33:00,
2013-01-18 22:38:00,44.1,29.4,29.97,WSW,248,2.5,2.7,56,0.00,,CLR,0.00,VWS V14.01,2013-01-19 04:38:00,
2013-01-18 22:43:00,44.4,30.2,29.97,WSW,248,2.9,2.9,57,0.00,,CLR,0.00,VWS V14.01,2013-01-19 04:43:00,
2013-01-18 22:49:00,45.0,30.7,29.97,WSW,248,3.4,3.6,57,0.00,,CLR,0.00,VWS V14.01,2013-01-19 04:49:00,
2013-01-18 22:54:00,46.2,31.0,29.97,WSW,248,2.9,3.1,55,0.00,,CLR,0.00,VWS V14.01,2013-01-19 04:54:00,
2013-01-18 22:59:00,46.6,30.8,29.97,WSW,248,4.0,4.0,54,0.00,,CLR,0.00,VWS V14.01,2013-01-19 04:59:00,
2013-01-18 23:00:00,46.6,30.8,29.97,WSW,248,3.8,4.0,54,0.00,,CLR,0.00,VWS V14.01,2013-01-19 05:00:00,
2013-01-18 23:02:00,46.8,30.5,29.97,WSW,248,3.1,3.8,53,0.00,,CLR,0.00,VWS V14.01,2013-01-19 05:02:00,
2013-01-18 23:03:00,46.8,30.5,29.97,WSW,248,2.5,3.8,53,0.00,,CLR,0.00,VWS V14.01,2013-01-19 05:03:00,
2013-01-18 23:08:00,46.6,30.4,29.97,WSW,248,2.7,3.6,53,0.00,,CLR,0.00,VWS V14.01,2013-01-19 05:08:00,
2013-01-18 23:13:00,46.6,30.4,29.94,WSW,248,3.4,3.4,53,0.00,,CLR,0.00,VWS V14.01,2013-01-19 05:13:00,
2013-01-18 23:18:00,46.4,30.2,29.94,West,270,2.9,4.0,53,0.00,,CLR,0.00,VWS V14.01,2013-01-19 05:18:00,
2013-01-18 23:24:00,46.2,30.0,29.94,WNW,292,3.1,4.3,53,0.00,,CLR,0.00,VWS V14.01,2013-01-19 05:24:00,
2013-01-18 23:29:00,46.2,30.0,29.94,WSW,248,3.6,3.8,53,0.00,,CLR,0.00,VWS V14.01,2013-01-19 05:29:00,
2013-01-18 23:35:00,46.0,29.9,29.94,West,270,2.0,3.6,53,0.00,,CLR,0.00,VWS V14.01,2013-01-19 05:35:00,
2013-01-18 23:40:00,46.0,30.3,29.97,West,270,4.3,4.3,54,0.00,,CLR,0.00,VWS V14.01,2013-01-19 05:40:00,
2013-01-18 23:47:00,46.0,30.3,29.97,West,270,5.4,5.4,54,0.00,,CLR,0.00,VWS V14.01,2013-01-19 05:47:00,
2013-01-18 23:52:00,46.0,30.3,29.97,West,270,4.0,4.7,54,0.00,,CLR,0.00,VWS V14.01,2013-01-19 05:52:00,
2013-01-18 23:57:00,46.0,30.3,29.97,West,270,3.6,4.7,54,0.00,,CLR,0.00,VWS V14.01,2013-01-19 05:57:00,